Wood Lake, North Dakota
Current Conditions -  °F | °C
As of 6:55 AM on Saturday 25 Oct 2014 (Local Time) from KDVL Reporting Station
Clear Clear  
Wind Chill:   Ceiling: Unl
Heat Index:   Visibility: 10mi
Dew Point: -2°   Wind: 12mph
Humidity: 65%   Direction: 280°W
Pressure: 30.05"   Gusts: NA
Location:  47.9248°N, 98.8159°W
Report Text: KDVL 251155Z AUTO 28010KT 10SM CLR 04/M02 A3005 RMK AO1 10080 20040 52017
Loading
Personal Weather Stations






























Interactive Weather Map
Tropical Storm Tracking
New forecast layout! Learn more

10-Day Weather Forecast

Advertisements
Track Severe Weather on mobile